Smit Orleans — CFN5087 — position and weather

sailwx.info

Track history (hours):
 
Tides and Currents Weather Stations Pressure Air Temp Water Temp Dewpoint Dewpoint Depression Visibility Wind Speed Wind Dir Waves Ship Positions

Smit Orleans

Last reported at 2014-Aug-23 03:33 UTC. Time now 2014-Aug-23 05:33 UTC.
Position N 49°17' W 123°04'.

Length 29 m; draft 5.1 m.

Type: . MMSI: 316012721.

Date/timePositionNaut miles runAvg speedWind from/ knotsBaromVisibWave heightAir tempDewpointWater temp
2014-Aug-23 03:33N 49°17' W 123°04'0 0.0
2014-Aug-23 02:33N 49°17' W 123°04'0 0.0
2014-Aug-23 01:33N 49°17' W 123°04'0 0.0
2014-Aug-23 00:33N 49°17' W 123°04'0 0.0
2014-Aug-22 23:33N 49°17' W 123°04'0 0.0
2014-Aug-22 22:33N 49°17' W 123°04'0 0.0
2014-Aug-22 21:33N 49°17' W 123°04'0 0.0
2014-Aug-22 20:33N 49°17' W 123°04'0 0.0
2014-Aug-22 19:33N 49°17' W 123°04'0 0.0
2014-Aug-22 18:33N 49°17' W 123°04'0 0.0
2014-Aug-22 17:33N 49°17' W 123°04'0 0.0
2014-Aug-22 16:33N 49°17' W 123°04'0 0.0
2014-Aug-22 15:33N 49°17' W 123°04'0 0.0
2014-Aug-22 14:33N 49°17' W 123°04'0 0.0
2014-Aug-22 13:33N 49°17' W 123°04'0 0.0
2014-Aug-22 12:33N 49°17' W 123°04'0 0.0
2014-Aug-22 11:33N 49°17' W 123°04'0 0.0
2014-Aug-22 10:33N 49°17' W 123°04'0 0.0
2014-Aug-22 09:33N 49°17' W 123°04'0 0.0
2014-Aug-22 08:33N 49°17' W 123°04'0 0.0
2014-Aug-22 07:33N 49°17' W 123°04'0 0.0
2014-Aug-22 06:33N 49°17' W 123°04'0 0.0
2014-Aug-22 05:33N 49°17' W 123°04'0 0.0
2014-Aug-22 04:33N 49°17' W 123°04'0 0.0
2014-Aug-22 03:33N 49°17' W 123°04'0 0.0
2014-Aug-22 02:33N 49°17' W 123°04'0 0.0
2014-Aug-22 01:33N 49°17' W 123°04'0 0.0
2014-Aug-22 00:33N 49°17' W 123°04'0 0.0
2014-Aug-21 23:33N 49°17' W 123°04'0 0.0
2014-Aug-21 22:33N 49°17' W 123°04'0 0.0
2014-Aug-21 21:33N 49°17' W 123°04'0 0.0
2014-Aug-21 20:33N 49°17' W 123°04'0 0.0
2014-Aug-21 19:33N 49°17' W 123°04'0 0.0
2014-Aug-21 18:33N 49°17' W 123°04'0 0.0
2014-Aug-21 17:33N 49°17' W 123°04'0 0.0
2014-Aug-21 16:33N 49°17' W 123°04'0 0.0
2014-Aug-21 15:33N 49°17' W 123°04'0 0.0
2014-Aug-21 14:33N 49°17' W 123°04'0 0.0
2014-Aug-21 13:33N 49°17' W 123°04'0 0.0
2014-Aug-21 12:33N 49°17' W 123°04'0 0.0
2014-Aug-21 11:33N 49°17' W 123°04'0 0.0
2014-Aug-21 10:33N 49°17' W 123°04'0 0.0
2014-Aug-21 09:33N 49°17' W 123°04'0 0.0
2014-Aug-21 08:33N 49°17' W 123°04'0 0.0
2014-Aug-21 07:33N 49°17' W 123°04'0 0.0
2014-Aug-21 06:33N 49°17' W 123°04'1 0.8
2014-Aug-21 05:34N 49°18' W 123°04'1 0.7
2014-Aug-21 04:34N 49°18' W 123°05'1 0.9
2014-Aug-21 03:33N 49°17' W 123°04'0 0.0
2014-Aug-21 02:33N 49°17' W 123°04'0 0.0
2014-Aug-21 01:33N 49°17' W 123°04'0 0.0
2014-Aug-21 00:33N 49°17' W 123°04'1 1.1
2014-Aug-20 23:33N 49°18' W 123°02'3 3.2
2014-Aug-20 22:33N 49°18' W 122°57'3 3.4
2014-Aug-20 21:33N 49°17' W 122°52'6 6.2
2014-Aug-20 20:33N 49°18' W 123°01'1 1.4
2014-Aug-20 19:33N 49°18' W 123°03'1 0.9
2014-Aug-20 18:33N 49°17' W 123°04'0 0.0
2014-Aug-20 17:33N 49°17' W 123°04'0 0.0
2014-Aug-20 16:33N 49°17' W 123°04'0 0.0
2014-Aug-20 15:33N 49°17' W 123°04'0 0.0
2014-Aug-20 14:33N 49°17' W 123°04'0 0.0
2014-Aug-20 13:33N 49°17' W 123°04'0 0.0
2014-Aug-20 12:33N 49°17' W 123°04'0 0.0
2014-Aug-20 11:33N 49°17' W 123°04'0 0.0
2014-Aug-20 10:33N 49°17' W 123°04'0 0.0
2014-Aug-20 09:33N 49°17' W 123°04'0 0.0
2014-Aug-20 08:33N 49°17' W 123°04'0 0.0
2014-Aug-20 07:33N 49°17' W 123°04'0 0.0
2014-Aug-20 06:33N 49°17' W 123°04'0 0.0
2014-Aug-20 05:33N 49°17' W 123°04'0 0.0
2014-Aug-20 04:33N 49°17' W 123°04'0 0.0
2014-Aug-20 03:33N 49°17' W 123°04'0 0.0
2014-Aug-20 02:33N 49°17' W 123°04'0 0.0
2014-Aug-20 01:33N 49°17' W 123°04'0 0.0
2014-Aug-20 00:33N 49°17' W 123°04'0 0.0
2014-Aug-19 23:33N 49°17' W 123°04'0 0.0
2014-Aug-19 22:33N 49°17' W 123°04'0 0.0
2014-Aug-19 21:33N 49°17' W 123°04'0 0.0
2014-Aug-19 20:33N 49°17' W 123°04'0 0.0
2014-Aug-19 19:33N 49°17' W 123°04'0 0.0
2014-Aug-19 18:33N 49°17' W 123°04'0 0.0
2014-Aug-19 17:33N 49°17' W 123°04'0 0.0
2014-Aug-19 16:33N 49°17' W 123°04'0 0.0
2014-Aug-19 15:34N 49°17' W 123°04'0 0.0
2014-Aug-19 14:33N 49°17' W 123°04'0 0.0
2014-Aug-19 13:33N 49°17' W 123°04'0 0.0
2014-Aug-19 12:33N 49°17' W 123°04'0 0.0
2014-Aug-19 11:33N 49°17' W 123°04'0 0.0
2014-Aug-19 10:33N 49°17' W 123°04'0 0.0
2014-Aug-19 09:33N 49°17' W 123°04'0 0.0
2014-Aug-19 08:33N 49°17' W 123°04'0 0.0
2014-Aug-19 07:33N 49°17' W 123°04'0 0.0
2014-Aug-19 06:33N 49°17' W 123°04'0 0.0
2014-Aug-19 05:33N 49°17' W 123°04'0 0.0
2014-Aug-19 04:33N 49°17' W 123°04'0 0.0
2014-Aug-19 03:33N 49°17' W 123°04'0 0.0
2014-Aug-19 02:33N 49°17' W 123°04'0 0.0
2014-Aug-19 01:33N 49°17' W 123°04'0 0.0
2014-Aug-19 00:33N 49°17' W 123°04'0 0.0
2014-Aug-18 23:33N 49°17' W 123°04'0 0.0
2014-Aug-18 22:33N 49°17' W 123°04'0 0.0
2014-Aug-18 21:33N 49°17' W 123°04'0 0.0
2014-Aug-18 20:33N 49°17' W 123°04'0 0.0
2014-Aug-18 19:33N 49°17' W 123°04'0 0.0
2014-Aug-18 18:33N 49°17' W 123°04'0 0.0
2014-Aug-18 17:33N 49°17' W 123°04'0 0.0
2014-Aug-18 16:33N 49°17' W 123°04'0 0.0
2014-Aug-18 15:33N 49°17' W 123°04'0 0.1
2014-Aug-18 14:33N 49°17' W 123°04'2 2.0
2014-Aug-18 13:33N 49°18' W 123°06'2 2.1
2014-Aug-18 12:33N 49°17' W 123°04'0 0.0
2014-Aug-18 11:33N 49°17' W 123°04'0 0.0
2014-Aug-18 10:33N 49°17' W 123°04'0 0.0
2014-Aug-18 09:33N 49°17' W 123°04'0 0.0
2014-Aug-18 08:33N 49°17' W 123°04'0 0.0
2014-Aug-18 07:33N 49°17' W 123°04'0 0.0
2014-Aug-18 06:33N 49°17' W 123°04'0 0.0
2014-Aug-18 05:33N 49°17' W 123°04'0 0.0
2014-Aug-18 04:33N 49°17' W 123°04'0 0.0
2014-Aug-18 03:33N 49°17' W 123°04'0 0.0
2014-Aug-18 02:33N 49°17' W 123°04'0 0.0
2014-Aug-18 01:33N 49°17' W 123°04'0 0.0
2014-Aug-18 00:33N 49°17' W 123°04'0 0.0
2014-Aug-17 18:33N 49°17' W 123°04'0 0.0
2014-Aug-17 17:33N 49°17' W 123°04'4 4.1
2014-Aug-17 16:34N 49°19' W 123°09'1110.8
2014-Aug-17 15:33N 49°10' W 123°19'1110.9
2014-Aug-17 14:34N 49°00' W 123°14'1212.5
2014-Aug-17 13:34N 48°51' W 123°01'1010.4
2014-Aug-17 12:34N 48°43' W 123°12'10 9.8
2014-Aug-17 11:33N 48°33' W 123°12'9 9.4
2014-Aug-17 10:33N 48°23' W 123°12'1110.9
2014-Aug-17 09:33N 48°18' W 123°26'4 4.4
2014-Aug-17 08:33N 48°22' W 123°25'10 9.5
2014-Aug-17 07:33N 48°27' W 123°12'1211.5
2014-Aug-17 06:33N 48°38' W 123°15'9 8.5
2014-Aug-17 05:33N 48°45' W 123°06'7 7.2
2014-Aug-17 04:33N 48°52' W 123°04'7 6.7
2014-Aug-17 03:33N 48°56' W 123°12'1010.1
2014-Aug-17 02:33N 49°04' W 123°21'1312.7
2014-Aug-17 01:33N 49°16' W 123°17'8 8.2
2014-Aug-17 00:33N 49°18' W 123°05'5 4.7
2014-Aug-16 23:33N 49°18' W 122°58'1 0.5
2014-Aug-16 22:33N 49°17' W 122°57'2 2.1
2014-Aug-16 21:33N 49°18' W 123°00'2 2.3
2014-Aug-16 20:33N 49°17' W 123°04'0 0.0
2014-Aug-16 19:33N 49°17' W 123°04'0 0.0
2014-Aug-16 18:34N 49°17' W 123°04'0 0.0
2014-Aug-16 17:33N 49°17' W 123°04'0 0.0
2014-Aug-16 16:33N 49°17' W 123°04'0 0.0
2014-Aug-16 15:33N 49°17' W 123°04'0 0.0
2014-Aug-16 14:33N 49°17' W 123°04'0 0.0
2014-Aug-16 13:33N 49°17' W 123°04'0 0.0
2014-Aug-16 12:33N 49°17' W 123°04'0 0.0
2014-Aug-16 11:34N 49°17' W 123°04'0 0.0
2014-Aug-16 10:33N 49°17' W 123°04'0 0.0
2014-Aug-16 09:33N 49°17' W 123°04'0 0.0
2014-Aug-16 08:33N 49°17' W 123°04'0 0.0
2014-Aug-16 07:33N 49°17' W 123°04'0 0.0
2014-Aug-16 06:33N 49°17' W 123°04'0 0.0
2014-Aug-16 05:33N 49°17' W 123°04'0 0.0
2014-Aug-16 04:33N 49°17' W 123°04'0 0.0
2014-Aug-16 03:33N 49°17' W 123°04'0 0.0
2014-Aug-16 02:33N 49°17' W 123°04'0 0.0
2014-Aug-16 01:33N 49°17' W 123°04'0 0.0
2014-Aug-16 00:33N 49°17' W 123°04'0 0.2
2014-Aug-15 23:33N 49°17' W 123°04'9 9.2
2014-Aug-15 22:33N 49°21' W 123°17'10 9.8
2014-Aug-15 21:31N 49°31' W 123°16'2 0.6
2014-Aug-15 18:04N 49°33' W 123°16'611.2
2014-Aug-15 17:33N 49°27' W 123°17'9 9.2
2014-Aug-15 16:33N 49°19' W 123°11'5 4.9
2014-Aug-15 15:33N 49°17' W 123°04'4 4.4
2014-Aug-15 14:33N 49°17' W 122°57'0 0.4
2014-Aug-15 13:33N 49°18' W 122°57'5 4.6
2014-Aug-15 12:34N 49°17' W 123°04'0 0.0
2014-Aug-15 11:34N 49°17' W 123°04'5 4.9
2014-Aug-15 10:34N 49°19' W 123°11'9 8.6
2014-Aug-15 09:33N 49°27' W 123°17'6 1.4
2014-Aug-15 05:09N 49°33' W 123°16'711.0
2014-Aug-15 04:34N 49°26' W 123°17'8 8.4
2014-Aug-15 03:34N 49°19' W 123°11'5 5.3
2014-Aug-15 02:33N 49°18' W 123°03'0 0.0
2014-Aug-15 01:34N 49°18' W 123°03'1 0.8
2014-Aug-15 00:34N 49°17' W 123°04'0 0.0
2014-Aug-14 23:34N 49°17' W 123°04'0 0.0
2014-Aug-14 22:34N 49°17' W 123°04'0 0.0
2014-Aug-14 21:34N 49°17' W 123°04'0 0.0
2014-Aug-14 20:34N 49°17' W 123°04'0 0.0
2014-Aug-14 19:34N 49°17' W 123°04'0 0.0
2014-Aug-14 18:34N 49°17' W 123°04'0 0.0
2014-Aug-14 17:33N 49°17' W 123°04'0 0.0
2014-Aug-14 16:34N 49°17' W 123°04'0 0.0
2014-Aug-14 15:34N 49°17' W 123°04'0 0.0
2014-Aug-14 14:34N 49°17' W 123°04'0 0.0
2014-Aug-14 13:33N 49°17' W 123°04'0 0.0
2014-Aug-14 12:34N 49°17' W 123°04'0 0.0
2014-Aug-14 11:33N 49°17' W 123°04'0 0.0
2014-Aug-14 10:34N 49°17' W 123°04'0 0.0
2014-Aug-14 09:34N 49°17' W 123°04'0 0.0
2014-Aug-14 08:34N 49°17' W 123°04'1 0.8
2014-Aug-14 07:34N 49°18' W 123°05'1 0.8
2014-Aug-14 06:34N 49°17' W 123°04'0 0.0
2014-Aug-14 05:34N 49°17' W 123°04'0 0.0
2014-Aug-14 04:34N 49°17' W 123°04'0 0.0
2014-Aug-14 03:34N 49°17' W 123°04'0 0.0
2014-Aug-14 02:34N 49°17' W 123°04'0 0.0
2014-Aug-14 01:33N 49°17' W 123°04'0 0.0
2014-Aug-14 00:34N 49°17' W 123°04'0 0.0
2014-Aug-13 23:34N 49°17' W 123°04'0 0.5
2014-Aug-13 22:34N 49°17' W 123°04'1 0.6
2014-Aug-13 21:33N 49°18' W 123°05'1 1.5
2014-Aug-13 20:34N 49°18' W 123°07'1 1.4
2014-Aug-13 19:34N 49°17' W 123°06'2 1.6
2014-Aug-13 18:34N 49°19' W 123°07'3 2.6
2014-Aug-13 17:34N 49°17' W 123°04'0 0.0
2014-Aug-13 16:34N 49°17' W 123°04'0 0.0
2014-Aug-13 15:33N 49°17' W 123°04'0 0.0
2014-Aug-13 14:34N 49°17' W 123°04'0 0.0
2014-Aug-13 13:34N 49°17' W 123°04'0 0.0
2014-Aug-13 12:34N 49°17' W 123°04'0 0.0
2014-Aug-13 11:34N 49°17' W 123°04'0 0.0
2014-Aug-13 10:34N 49°17' W 123°04'0 0.0
2014-Aug-13 09:34N 49°17' W 123°04'0 0.0
2014-Aug-13 08:34N 49°17' W 123°04'0 0.0
2014-Aug-13 07:34N 49°17' W 123°04'0 0.0
2014-Aug-13 06:34N 49°17' W 123°04'0 0.0
2014-Aug-13 05:34N 49°17' W 123°04'0 0.0
2014-Aug-13 04:33N 49°17' W 123°04'0 0.0
2014-Aug-13 03:34N 49°17' W 123°04'  
Track history (hours):
 
Tides and Currents Weather Stations Pressure Air Temp Water Temp Dewpoint Dewpoint Depression Visibility Wind Speed Wind Dir Waves Ship Positions

Smit Orleans

Last reported at 2014-Aug-23 03:33 UTC. Time now 2014-Aug-23 05:33 UTC.
Position N 49°17' W 123°04'.

Length 29 m; draft 5.1 m.

Type: . MMSI: 316012721.

Date/timePositionNaut miles runAvg speedWind from/ knotsBaromVisibWave heightAir tempDewpointWater temp
2014-Aug-23 03:33N 49°17' W 123°04'0 0.0
2014-Aug-23 02:33N 49°17' W 123°04'0 0.0
2014-Aug-23 01:33N 49°17' W 123°04'0 0.0
2014-Aug-23 00:33N 49°17' W 123°04'0 0.0
2014-Aug-22 23:33N 49°17' W 123°04'0 0.0
2014-Aug-22 22:33N 49°17' W 123°04'0 0.0
2014-Aug-22 21:33N 49°17' W 123°04'0 0.0
2014-Aug-22 20:33N 49°17' W 123°04'0 0.0
2014-Aug-22 19:33N 49°17' W 123°04'0 0.0
2014-Aug-22 18:33N 49°17' W 123°04'0 0.0
2014-Aug-22 17:33N 49°17' W 123°04'0 0.0
2014-Aug-22 16:33N 49°17' W 123°04'0 0.0
2014-Aug-22 15:33N 49°17' W 123°04'0 0.0
2014-Aug-22 14:33N 49°17' W 123°04'0 0.0
2014-Aug-22 13:33N 49°17' W 123°04'0 0.0
2014-Aug-22 12:33N 49°17' W 123°04'0 0.0
2014-Aug-22 11:33N 49°17' W 123°04'0 0.0
2014-Aug-22 10:33N 49°17' W 123°04'0 0.0
2014-Aug-22 09:33N 49°17' W 123°04'0 0.0
2014-Aug-22 08:33N 49°17' W 123°04'0 0.0
2014-Aug-22 07:33N 49°17' W 123°04'0 0.0
2014-Aug-22 06:33N 49°17' W 123°04'0 0.0
2014-Aug-22 05:33N 49°17' W 123°04'0 0.0
2014-Aug-22 04:33N 49°17' W 123°04'0 0.0
2014-Aug-22 03:33N 49°17' W 123°04'0 0.0
2014-Aug-22 02:33N 49°17' W 123°04'0 0.0
2014-Aug-22 01:33N 49°17' W 123°04'0 0.0
2014-Aug-22 00:33N 49°17' W 123°04'0 0.0
2014-Aug-21 23:33N 49°17' W 123°04'0 0.0
2014-Aug-21 22:33N 49°17' W 123°04'0 0.0
2014-Aug-21 21:33N 49°17' W 123°04'0 0.0
2014-Aug-21 20:33N 49°17' W 123°04'0 0.0
2014-Aug-21 19:33N 49°17' W 123°04'0 0.0
2014-Aug-21 18:33N 49°17' W 123°04'0 0.0
2014-Aug-21 17:33N 49°17' W 123°04'0 0.0
2014-Aug-21 16:33N 49°17' W 123°04'0 0.0
2014-Aug-21 15:33N 49°17' W 123°04'0 0.0
2014-Aug-21 14:33N 49°17' W 123°04'0 0.0
2014-Aug-21 13:33N 49°17' W 123°04'0 0.0
2014-Aug-21 12:33N 49°17' W 123°04'0 0.0
2014-Aug-21 11:33N 49°17' W 123°04'0 0.0
2014-Aug-21 10:33N 49°17' W 123°04'0 0.0
2014-Aug-21 09:33N 49°17' W 123°04'0 0.0
2014-Aug-21 08:33N 49°17' W 123°04'0 0.0
2014-Aug-21 07:33N 49°17' W 123°04'0 0.0
2014-Aug-21 06:33N 49°17' W 123°04'1 0.8
2014-Aug-21 05:34N 49°18' W 123°04'1 0.7
2014-Aug-21 04:34N 49°18' W 123°05'1 0.9
2014-Aug-21 03:33N 49°17' W 123°04'0 0.0
2014-Aug-21 02:33N 49°17' W 123°04'0 0.0
2014-Aug-21 01:33N 49°17' W 123°04'0 0.0
2014-Aug-21 00:33N 49°17' W 123°04'1 1.1
2014-Aug-20 23:33N 49°18' W 123°02'3 3.2
2014-Aug-20 22:33N 49°18' W 122°57'3 3.4
2014-Aug-20 21:33N 49°17' W 122°52'6 6.2
2014-Aug-20 20:33N 49°18' W 123°01'1 1.4
2014-Aug-20 19:33N 49°18' W 123°03'1 0.9
2014-Aug-20 18:33N 49°17' W 123°04'0 0.0
2014-Aug-20 17:33N 49°17' W 123°04'0 0.0
2014-Aug-20 16:33N 49°17' W 123°04'0 0.0
2014-Aug-20 15:33N 49°17' W 123°04'0 0.0
2014-Aug-20 14:33N 49°17' W 123°04'0 0.0
2014-Aug-20 13:33N 49°17' W 123°04'0 0.0
2014-Aug-20 12:33N 49°17' W 123°04'0 0.0
2014-Aug-20 11:33N 49°17' W 123°04'0 0.0
2014-Aug-20 10:33N 49°17' W 123°04'0 0.0
2014-Aug-20 09:33N 49°17' W 123°04'0 0.0
2014-Aug-20 08:33N 49°17' W 123°04'0 0.0
2014-Aug-20 07:33N 49°17' W 123°04'0 0.0
2014-Aug-20 06:33N 49°17' W 123°04'0 0.0
2014-Aug-20 05:33N 49°17' W 123°04'0 0.0
2014-Aug-20 04:33N 49°17' W 123°04'0 0.0
2014-Aug-20 03:33N 49°17' W 123°04'0 0.0
2014-Aug-20 02:33N 49°17' W 123°04'0 0.0
2014-Aug-20 01:33N 49°17' W 123°04'0 0.0
2014-Aug-20 00:33N 49°17' W 123°04'0 0.0
2014-Aug-19 23:33N 49°17' W 123°04'0 0.0
2014-Aug-19 22:33N 49°17' W 123°04'0 0.0
2014-Aug-19 21:33N 49°17' W 123°04'0 0.0
2014-Aug-19 20:33N 49°17' W 123°04'0 0.0
2014-Aug-19 19:33N 49°17' W 123°04'0 0.0
2014-Aug-19 18:33N 49°17' W 123°04'0 0.0
2014-Aug-19 17:33N 49°17' W 123°04'0 0.0
2014-Aug-19 16:33N 49°17' W 123°04'0 0.0
2014-Aug-19 15:34N 49°17' W 123°04'0 0.0
2014-Aug-19 14:33N 49°17' W 123°04'0 0.0
2014-Aug-19 13:33N 49°17' W 123°04'0 0.0
2014-Aug-19 12:33N 49°17' W 123°04'0 0.0
2014-Aug-19 11:33N 49°17' W 123°04'0 0.0
2014-Aug-19 10:33N 49°17' W 123°04'0 0.0
2014-Aug-19 09:33N 49°17' W 123°04'0 0.0
2014-Aug-19 08:33N 49°17' W 123°04'0 0.0
2014-Aug-19 07:33N 49°17' W 123°04'0 0.0
2014-Aug-19 06:33N 49°17' W 123°04'0 0.0
2014-Aug-19 05:33N 49°17' W 123°04'0 0.0
2014-Aug-19 04:33N 49°17' W 123°04'0 0.0
2014-Aug-19 03:33N 49°17' W 123°04'0 0.0
2014-Aug-19 02:33N 49°17' W 123°04'0 0.0
2014-Aug-19 01:33N 49°17' W 123°04'0 0.0
2014-Aug-19 00:33N 49°17' W 123°04'0 0.0
2014-Aug-18 23:33N 49°17' W 123°04'0 0.0
2014-Aug-18 22:33N 49°17' W 123°04'0 0.0
2014-Aug-18 21:33N 49°17' W 123°04'0 0.0
2014-Aug-18 20:33N 49°17' W 123°04'0 0.0
2014-Aug-18 19:33N 49°17' W 123°04'0 0.0
2014-Aug-18 18:33N 49°17' W 123°04'0 0.0
2014-Aug-18 17:33N 49°17' W 123°04'0 0.0
2014-Aug-18 16:33N 49°17' W 123°04'0 0.0
2014-Aug-18 15:33N 49°17' W 123°04'0 0.1
2014-Aug-18 14:33N 49°17' W 123°04'2 2.0
2014-Aug-18 13:33N 49°18' W 123°06'2 2.1
2014-Aug-18 12:33N 49°17' W 123°04'0 0.0
2014-Aug-18 11:33N 49°17' W 123°04'0 0.0
2014-Aug-18 10:33N 49°17' W 123°04'0 0.0
2014-Aug-18 09:33N 49°17' W 123°04'0 0.0
2014-Aug-18 08:33N 49°17' W 123°04'0 0.0
2014-Aug-18 07:33N 49°17' W 123°04'0 0.0
2014-Aug-18 06:33N 49°17' W 123°04'0 0.0
2014-Aug-18 05:33N 49°17' W 123°04'0 0.0
2014-Aug-18 04:33N 49°17' W 123°04'0 0.0
2014-Aug-18 03:33N 49°17' W 123°04'0 0.0
2014-Aug-18 02:33N 49°17' W 123°04'0 0.0
2014-Aug-18 01:33N 49°17' W 123°04'0 0.0
2014-Aug-18 00:33N 49°17' W 123°04'0 0.0
2014-Aug-17 18:33N 49°17' W 123°04'0 0.0
2014-Aug-17 17:33N 49°17' W 123°04'4 4.1
2014-Aug-17 16:34N 49°19' W 123°09'1110.8
2014-Aug-17 15:33N 49°10' W 123°19'1110.9
2014-Aug-17 14:34N 49°00' W 123°14'1212.5
2014-Aug-17 13:34N 48°51' W 123°01'1010.4
2014-Aug-17 12:34N 48°43' W 123°12'10 9.8
2014-Aug-17 11:33N 48°33' W 123°12'9 9.4
2014-Aug-17 10:33N 48°23' W 123°12'1110.9
2014-Aug-17 09:33N 48°18' W 123°26'4 4.4
2014-Aug-17 08:33N 48°22' W 123°25'10 9.5
2014-Aug-17 07:33N 48°27' W 123°12'1211.5
2014-Aug-17 06:33N 48°38' W 123°15'9 8.5
2014-Aug-17 05:33N 48°45' W 123°06'7 7.2
2014-Aug-17 04:33N 48°52' W 123°04'7 6.7
2014-Aug-17 03:33N 48°56' W 123°12'1010.1
2014-Aug-17 02:33N 49°04' W 123°21'1312.7
2014-Aug-17 01:33N 49°16' W 123°17'8 8.2
2014-Aug-17 00:33N 49°18' W 123°05'5 4.7
2014-Aug-16 23:33N 49°18' W 122°58'1 0.5
2014-Aug-16 22:33N 49°17' W 122°57'2 2.1
2014-Aug-16 21:33N 49°18' W 123°00'2 2.3
2014-Aug-16 20:33N 49°17' W 123°04'0 0.0
2014-Aug-16 19:33N 49°17' W 123°04'0 0.0
2014-Aug-16 18:34N 49°17' W 123°04'0 0.0
2014-Aug-16 17:33N 49°17' W 123°04'0 0.0
2014-Aug-16 16:33N 49°17' W 123°04'0 0.0
2014-Aug-16 15:33N 49°17' W 123°04'0 0.0
2014-Aug-16 14:33N 49°17' W 123°04'0 0.0
2014-Aug-16 13:33N 49°17' W 123°04'0 0.0
2014-Aug-16 12:33N 49°17' W 123°04'0 0.0
2014-Aug-16 11:34N 49°17' W 123°04'0 0.0
2014-Aug-16 10:33N 49°17' W 123°04'0 0.0
2014-Aug-16 09:33N 49°17' W 123°04'0 0.0
2014-Aug-16 08:33N 49°17' W 123°04'0 0.0
2014-Aug-16 07:33N 49°17' W 123°04'0 0.0
2014-Aug-16 06:33N 49°17' W 123°04'0 0.0
2014-Aug-16 05:33N 49°17' W 123°04'0 0.0
2014-Aug-16 04:33N 49°17' W 123°04'0 0.0
2014-Aug-16 03:33N 49°17' W 123°04'0 0.0
2014-Aug-16 02:33N 49°17' W 123°04'0 0.0
2014-Aug-16 01:33N 49°17' W 123°04'0 0.0
2014-Aug-16 00:33N 49°17' W 123°04'0 0.2
2014-Aug-15 23:33N 49°17' W 123°04'9 9.2
2014-Aug-15 22:33N 49°21' W 123°17'10 9.8
2014-Aug-15 21:31N 49°31' W 123°16'2 0.6
2014-Aug-15 18:04N 49°33' W 123°16'611.2
2014-Aug-15 17:33N 49°27' W 123°17'9 9.2
2014-Aug-15 16:33N 49°19' W 123°11'5 4.9
2014-Aug-15 15:33N 49°17' W 123°04'4 4.4
2014-Aug-15 14:33N 49°17' W 122°57'0 0.4
2014-Aug-15 13:33N 49°18' W 122°57'5 4.6
2014-Aug-15 12:34N 49°17' W 123°04'0 0.0
2014-Aug-15 11:34N 49°17' W 123°04'5 4.9
2014-Aug-15 10:34N 49°19' W 123°11'9 8.6
2014-Aug-15 09:33N 49°27' W 123°17'6 1.4
2014-Aug-15 05:09N 49°33' W 123°16'711.0
2014-Aug-15 04:34N 49°26' W 123°17'8 8.4
2014-Aug-15 03:34N 49°19' W 123°11'5 5.3
2014-Aug-15 02:33N 49°18' W 123°03'0 0.0
2014-Aug-15 01:34N 49°18' W 123°03'1 0.8
2014-Aug-15 00:34N 49°17' W 123°04'0 0.0
2014-Aug-14 23:34N 49°17' W 123°04'0 0.0
2014-Aug-14 22:34N 49°17' W 123°04'0 0.0
2014-Aug-14 21:34N 49°17' W 123°04'0 0.0
2014-Aug-14 20:34N 49°17' W 123°04'0 0.0
2014-Aug-14 19:34N 49°17' W 123°04'0 0.0
2014-Aug-14 18:34N 49°17' W 123°04'0 0.0
2014-Aug-14 17:33N 49°17' W 123°04'0 0.0
2014-Aug-14 16:34N 49°17' W 123°04'0 0.0
2014-Aug-14 15:34N 49°17' W 123°04'0 0.0
2014-Aug-14 14:34N 49°17' W 123°04'0 0.0
2014-Aug-14 13:33N 49°17' W 123°04'0 0.0
2014-Aug-14 12:34N 49°17' W 123°04'0 0.0
2014-Aug-14 11:33N 49°17' W 123°04'0 0.0
2014-Aug-14 10:34N 49°17' W 123°04'0 0.0
2014-Aug-14 09:34N 49°17' W 123°04'0 0.0
2014-Aug-14 08:34N 49°17' W 123°04'1 0.8
2014-Aug-14 07:34N 49°18' W 123°05'1 0.8
2014-Aug-14 06:34N 49°17' W 123°04'0 0.0
2014-Aug-14 05:34N 49°17' W 123°04'0 0.0
2014-Aug-14 04:34N 49°17' W 123°04'0 0.0
2014-Aug-14 03:34N 49°17' W 123°04'0 0.0
2014-Aug-14 02:34N 49°17' W 123°04'0 0.0
2014-Aug-14 01:33N 49°17' W 123°04'0 0.0
2014-Aug-14 00:34N 49°17' W 123°04'0 0.0
2014-Aug-13 23:34N 49°17' W 123°04'0 0.5
2014-Aug-13 22:34N 49°17' W 123°04'1 0.6
2014-Aug-13 21:33N 49°18' W 123°05'1 1.5
2014-Aug-13 20:34N 49°18' W 123°07'1 1.4
2014-Aug-13 19:34N 49°17' W 123°06'2 1.6
2014-Aug-13 18:34N 49°19' W 123°07'3 2.6
2014-Aug-13 17:34N 49°17' W 123°04'0 0.0
2014-Aug-13 16:34N 49°17' W 123°04'0 0.0
2014-Aug-13 15:33N 49°17' W 123°04'0 0.0
2014-Aug-13 14:34N 49°17' W 123°04'0 0.0
2014-Aug-13 13:34N 49°17' W 123°04'0 0.0
2014-Aug-13 12:34N 49°17' W 123°04'0 0.0
2014-Aug-13 11:34N 49°17' W 123°04'0 0.0
2014-Aug-13 10:34N 49°17' W 123°04'0 0.0
2014-Aug-13 09:34N 49°17' W 123°04'0 0.0
2014-Aug-13 08:34N 49°17' W 123°04'0 0.0
2014-Aug-13 07:34N 49°17' W 123°04'0 0.0
2014-Aug-13 06:34N 49°17' W 123°04'0 0.0
2014-Aug-13 05:34N 49°17' W 123°04'0 0.0
2014-Aug-13 04:33N 49°17' W 123°04'0 0.0
2014-Aug-13 03:34N 49°17' W 123°04'  

Dump ship's entire track history